Time;durP1;ratioP1;P1;durP2;ratioP2;P2;SDS_P1;SDS_P2;PMS_P1;PMS_P2;Temp;Humidity;BMP_temperature;BMP_pressure;BME280_temperature;BME280_humidity;BME280_pressure;Samples;Min_cycle;Max_cycle;Signal;HPM_P1;HPM_P2
2023/04/21 00:01:01;;;;;;;32.45;19.25;;;;;;;;;;5013731;28;20052;-75
2023/04/21 00:03:28;;;;;;;33.60;20.00;;;;;;;;;;5014942;28;20055;-75
2023/04/21 00:05:57;;;;;;;27.98;18.42;;;;;;;;;;5026015;28;20052;-75
2023/04/21 00:08:25;;;;;;;28.75;19.42;;;;;;;;;;5046582;28;20135;-75
2023/04/21 00:10:51;;;;;;;30.23;19.50;;;;;;;;;;5047571;28;20412;-75
2023/04/21 00:13:17;;;;;;;29.02;18.80;;;;;;;;;;5047916;28;20279;-76
2023/04/21 00:15:43;;;;;;;29.75;19.02;;;;;;;;;;5030205;28;20152;-74
2023/04/21 00:18:09;;;;;;;27.50;19.23;;;;;;;;;;5030323;28;20057;-74
2023/04/21 00:20:36;;;;;;;27.70;18.40;;;;;;;;;;5027841;28;20615;-74
2023/04/21 00:23:02;;;;;;;30.20;17.98;;;;;;;;;;5046834;28;20079;-75
2023/04/21 00:25:28;;;;;;;22.40;17.80;;;;;;;;;;5029347;28;20041;-75
2023/04/21 00:27:54;;;;;;;28.15;17.90;;;;;;;;;;5030772;28;20855;-75
2023/04/21 00:30:20;;;;;;;25.10;17.88;;;;;;;;;;5028624;28;20041;-75
2023/04/21 00:32:46;;;;;;;25.55;17.33;;;;;;;;;;5029711;28;20044;-74
2023/04/21 00:35:12;;;;;;;26.85;17.67;;;;;;;;;;5028971;28;20376;-75
2023/04/21 00:37:40;;;;;;;28.23;17.83;;;;;;;;;;5029934;28;20479;-75
2023/04/21 00:40:06;;;;;;;30.73;17.98;;;;;;;;;;5047295;28;20522;-74
2023/04/21 00:42:32;;;;;;;25.92;17.55;;;;;;;;;;5029514;28;20071;-74
2023/04/21 00:44:58;;;;;;;28.23;17.55;;;;;;;;;;5029906;28;20884;-74
2023/04/21 00:47:25;;;;;;;28.77;18.75;;;;;;;;;;5029177;28;20076;-74
2023/04/21 00:49:51;;;;;;;25.92;17.48;;;;;;;;;;5028909;28;20067;-75
2023/04/21 00:52:18;;;;;;;26.15;17.67;;;;;;;;;;5030187;28;20063;-74
2023/04/21 00:54:44;;;;;;;25.50;17.50;;;;;;;;;;5029063;28;20456;-75
2023/04/21 00:57:11;;;;;;;30.50;17.15;;;;;;;;;;5029906;28;20069;-74
2023/04/21 00:59:37;;;;;;;31.30;18.23;;;;;;;;;;5027770;28;20465;-75
2023/04/21 01:02:03;;;;;;;28.83;16.90;;;;;;;;;;5029557;28;20045;-76
2023/04/21 01:04:35;;;;;;;26.38;18.17;;;;;;;;;;5010854;28;20039;-75
2023/04/21 01:07:03;;;;;;;26.77;17.13;;;;;;;;;;5029910;28;20151;-74
2023/04/21 01:09:29;;;;;;;27.95;17.48;;;;;;;;;;5029185;28;20053;-76
2023/04/21 01:12:05;;;;;;;24.63;16.83;;;;;;;;;;5026124;28;20048;-75
2023/04/21 01:14:31;;;;;;;30.88;17.20;;;;;;;;;;5047499;28;20040;-73
2023/04/21 01:16:57;;;;;;;26.80;17.08;;;;;;;;;;5028145;28;20045;-74
2023/04/21 01:19:24;;;;;;;26.88;17.05;;;;;;;;;;5028847;28;20111;-75
2023/04/21 01:21:52;;;;;;;24.90;17.15;;;;;;;;;;5027275;28;20044;-74
2023/04/21 01:24:18;;;;;;;29.70;17.65;;;;;;;;;;5026284;28;20061;-75
2023/04/21 01:26:48;;;;;;;23.63;16.65;;;;;;;;;;5026806;28;20049;-75
2023/04/21 01:29:14;;;;;;;28.48;18.00;;;;;;;;;;5017657;28;20556;-75
2023/04/21 01:31:40;;;;;;;27.08;17.50;;;;;;;;;;5025282;28;20056;-75
2023/04/21 01:34:07;;;;;;;25.80;17.55;;;;;;;;;;5025521;28;20052;-75
2023/04/21 01:36:33;;;;;;;24.73;16.55;;;;;;;;;;5025656;28;20056;-75
2023/04/21 01:38:59;;;;;;;23.95;16.73;;;;;;;;;;5025384;28;20374;-75
2023/04/21 01:41:25;;;;;;;26.52;16.80;;;;;;;;;;5024974;28;20052;-76
2023/04/21 01:43:51;;;;;;;25.95;17.52;;;;;;;;;;5026136;28;20033;-75
2023/04/21 01:46:19;;;;;;;22.10;16.73;;;;;;;;;;5027147;28;20048;-76
2023/04/21 01:48:45;;;;;;;23.52;16.92;;;;;;;;;;5007800;28;20072;-75
2023/04/21 01:51:11;;;;;;;27.98;16.63;;;;;;;;;;5023230;28;20045;-75
2023/04/21 01:53:37;;;;;;;24.83;17.08;;;;;;;;;;5025442;28;20047;-75
2023/04/21 01:56:03;;;;;;;24.35;15.95;;;;;;;;;;5024368;28;20053;-75
2023/04/21 01:58:29;;;;;;;28.08;16.88;;;;;;;;;;5022482;28;20115;-76
2023/04/21 02:00:55;;;;;;;21.02;16.30;;;;;;;;;;5022603;28;20041;-75
2023/04/21 02:03:21;;;;;;;25.00;16.90;;;;;;;;;;5025331;28;20072;-76
2023/04/21 02:05:47;;;;;;;28.05;17.05;;;;;;;;;;5023812;28;20073;-76
2023/04/21 02:08:13;;;;;;;23.92;16.55;;;;;;;;;;5020917;28;20067;-75
2023/04/21 02:10:39;;;;;;;25.40;16.42;;;;;;;;;;5024406;28;20057;-75
2023/04/21 02:13:05;;;;;;;22.95;15.90;;;;;;;;;;5024433;28;20777;-75
2023/04/21 02:15:32;;;;;;;27.27;16.45;;;;;;;;;;5025484;28;20390;-75
2023/04/21 02:17:58;;;;;;;28.85;17.40;;;;;;;;;;5024713;28;20065;-75
2023/04/21 02:20:24;;;;;;;27.88;16.75;;;;;;;;;;5024783;28;20041;-75
2023/04/21 02:22:50;;;;;;;25.23;17.98;;;;;;;;;;5029771;28;20513;-74
2023/04/21 02:25:16;;;;;;;28.13;17.55;;;;;;;;;;5028817;28;20091;-75
2023/04/21 02:27:42;;;;;;;30.38;16.05;;;;;;;;;;5028261;28;20049;-75
2023/04/21 02:30:09;;;;;;;25.33;17.52;;;;;;;;;;5026417;28;20045;-73
2023/04/21 02:32:36;;;;;;;23.58;17.05;;;;;;;;;;5028252;28;20064;-74
2023/04/21 02:35:02;;;;;;;29.38;18.17;;;;;;;;;;5044681;28;20055;-75
2023/04/21 02:37:28;;;;;;;26.77;17.00;;;;;;;;;;5044843;28;20052;-75
2023/04/21 02:39:54;;;;;;;28.10;17.17;;;;;;;;;;5045877;28;20049;-75
2023/04/21 02:42:20;;;;;;;29.92;18.08;;;;;;;;;;5046376;28;20412;-74
2023/04/21 02:44:46;;;;;;;25.65;18.60;;;;;;;;;;5028204;28;20052;-75
2023/04/21 02:47:14;;;;;;;26.25;18.50;;;;;;;;;;5027646;28;20045;-74
2023/04/21 02:49:43;;;;;;;30.35;17.77;;;;;;;;;;5045607;28;20502;-76
2023/04/21 02:52:09;;;;;;;25.85;17.88;;;;;;;;;;5026717;28;20469;-75
2023/04/21 02:54:35;;;;;;;31.75;17.80;;;;;;;;;;5028152;28;20173;-75
2023/04/21 02:57:01;;;;;;;26.88;18.65;;;;;;;;;;5044318;28;20071;-74
2023/04/21 02:59:27;;;;;;;27.90;18.23;;;;;;;;;;5043671;28;20087;-75
2023/04/21 03:01:53;;;;;;;30.25;18.58;;;;;;;;;;5045258;28;20152;-75
2023/04/21 03:04:19;;;;;;;25.98;18.17;;;;;;;;;;5026164;28;20052;-75
2023/04/21 03:06:45;;;;;;;29.10;18.70;;;;;;;;;;5027471;28;20048;-75
2023/04/21 03:09:11;;;;;;;30.52;19.13;;;;;;;;;;5027200;28;20629;-74
2023/04/21 03:11:37;;;;;;;33.83;19.80;;;;;;;;;;5026860;28;20114;-75
2023/04/21 03:14:03;;;;;;;28.45;18.50;;;;;;;;;;5044263;28;20551;-74
2023/04/21 03:16:29;;;;;;;31.05;19.42;;;;;;;;;;5027532;28;20048;-75
2023/04/21 03:18:55;;;;;;;32.40;19.52;;;;;;;;;;5025515;28;20049;-74
2023/04/21 03:21:21;;;;;;;32.90;19.13;;;;;;;;;;5027577;28;20098;-73
2023/04/21 03:23:47;;;;;;;23.98;18.73;;;;;;;;;;5026709;28;20460;-75
2023/04/21 03:26:13;;;;;;;26.92;18.35;;;;;;;;;;5026654;28;20049;-74
2023/04/21 03:28:39;;;;;;;34.17;19.52;;;;;;;;;;5010729;28;20079;-75
2023/04/21 03:31:05;;;;;;;28.48;19.15;;;;;;;;;;5025613;28;20650;-75
2023/04/21 03:33:31;;;;;;;31.80;19.33;;;;;;;;;;5027431;28;20080;-75
2023/04/21 03:35:57;;;;;;;29.35;19.17;;;;;;;;;;5042692;28;20060;-74
2023/04/21 03:38:23;;;;;;;28.02;18.27;;;;;;;;;;5028279;28;20140;-74
2023/04/21 03:40:49;;;;;;;31.33;19.45;;;;;;;;;;5027408;28;20045;-75
2023/04/21 03:43:15;;;;;;;27.20;18.58;;;;;;;;;;5026875;28;20052;-74
2023/04/21 03:45:41;;;;;;;31.73;19.70;;;;;;;;;;5044817;28;20041;-75
2023/04/21 03:48:07;;;;;;;30.05;18.55;;;;;;;;;;5025985;28;20596;-75
2023/04/21 03:50:33;;;;;;;28.42;19.30;;;;;;;;;;5041953;28;20045;-75
2023/04/21 03:52:59;;;;;;;29.75;19.33;;;;;;;;;;5025916;28;20142;-73
2023/04/21 03:55:25;;;;;;;29.27;19.20;;;;;;;;;;5027425;28;20049;-76
2023/04/21 03:57:51;;;;;;;29.83;19.40;;;;;;;;;;5026756;28;20435;-75
2023/04/21 04:00:17;;;;;;;31.02;19.85;;;;;;;;;;5043778;28;20036;-75
2023/04/21 04:02:43;;;;;;;28.75;19.58;;;;;;;;;;5026823;28;20048;-75
2023/04/21 04:05:09;;;;;;;29.08;19.58;;;;;;;;;;5025120;28;20123;-75
2023/04/21 04:07:35;;;;;;;30.55;19.15;;;;;;;;;;5027737;28;20080;-75
2023/04/21 04:10:01;;;;;;;32.33;18.50;;;;;;;;;;5026614;28;20126;-74
2023/04/21 04:12:27;;;;;;;32.20;19.50;;;;;;;;;;5027543;28;20574;-75
2023/04/21 04:14:53;;;;;;;27.60;18.77;;;;;;;;;;5008049;28;20124;-75
2023/04/21 04:17:19;;;;;;;26.10;18.88;;;;;;;;;;5027551;28;20144;-74
2023/04/21 04:19:45;;;;;;;29.02;19.42;;;;;;;;;;5024719;28;20088;-74
2023/04/21 04:22:11;;;;;;;29.77;18.98;;;;;;;;;;5026302;28;20126;-73
2023/04/21 04:24:37;;;;;;;32.95;19.50;;;;;;;;;;5025922;28;20916;-76
2023/04/21 04:27:04;;;;;;;29.70;18.77;;;;;;;;;;5043994;28;20049;-75
2023/04/21 04:29:31;;;;;;;37.25;19.17;;;;;;;;;;5044779;28;20060;-74
2023/04/21 04:31:59;;;;;;;31.27;19.23;;;;;;;;;;5047104;28;20056;-76
2023/04/21 04:34:25;;;;;;;28.83;18.85;;;;;;;;;;5046850;28;20182;-75
2023/04/21 04:36:52;;;;;;;30.83;18.67;;;;;;;;;;5047617;28;20678;-75
2023/04/21 04:39:18;;;;;;;30.10;17.67;;;;;;;;;;5048426;28;20223;-74
2023/04/21 04:41:45;;;;;;;30.88;19.23;;;;;;;;;;5047865;28;20596;-74
2023/04/21 04:44:14;;;;;;;26.13;18.08;;;;;;;;;;5046877;28;20041;-74
2023/04/21 04:46:40;;;;;;;27.58;18.55;;;;;;;;;;5048390;28;20497;-73
2023/04/21 04:49:06;;;;;;;29.42;18.63;;;;;;;;;;5027250;28;20516;-75
2023/04/21 04:51:32;;;;;;;31.40;18.45;;;;;;;;;;5047576;28;20137;-74
2023/04/21 04:53:58;;;;;;;23.80;17.80;;;;;;;;;;5046503;28;20045;-75
2023/04/21 04:56:24;;;;;;;27.33;17.88;;;;;;;;;;5030317;28;20502;-74
2023/04/21 04:58:50;;;;;;;27.85;17.70;;;;;;;;;;5028610;28;20052;-74
2023/04/21 05:01:16;;;;;;;30.75;17.52;;;;;;;;;;5046804;28;20047;-75
2023/04/21 05:03:42;;;;;;;25.30;16.77;;;;;;;;;;5047285;28;20040;-76
2023/04/21 05:06:09;;;;;;;26.85;16.90;;;;;;;;;;5046343;28;20451;-76
2023/04/21 05:08:35;;;;;;;27.20;16.60;;;;;;;;;;5047916;28;20057;-76
2023/04/21 05:11:01;;;;;;;25.92;17.58;;;;;;;;;;5046212;28;20123;-75
2023/04/21 05:13:27;;;;;;;32.92;17.35;;;;;;;;;;5047432;28;20044;-75
2023/04/21 05:16:01;;;;;;;27.80;16.65;;;;;;;;;;5046400;28;20060;-76
2023/04/21 05:18:27;;;;;;;26.30;17.80;;;;;;;;;;5029587;28;20056;-75
2023/04/21 05:20:53;;;;;;;26.50;16.95;;;;;;;;;;5028701;28;20044;-75
2023/04/21 05:23:19;;;;;;;30.63;16.38;;;;;;;;;;5028805;28;20061;-76
2023/04/21 05:25:45;;;;;;;28.05;16.23;;;;;;;;;;5047277;28;20049;-74
2023/04/21 05:28:12;;;;;;;24.52;16.25;;;;;;;;;;5045249;28;20492;-75
2023/04/21 05:30:37;;;;;;;25.02;15.43;;;;;;;;;;5047325;28;20049;-75
2023/04/21 05:33:03;;;;;;;26.92;16.02;;;;;;;;;;5028610;28;20041;-74
2023/04/21 05:35:30;;;;;;;23.10;16.08;;;;;;;;;;5045990;28;20799;-74
2023/04/21 05:37:56;;;;;;;28.25;15.73;;;;;;;;;;5046613;28;20522;-74
2023/04/21 05:40:22;;;;;;;22.77;15.93;;;;;;;;;;5046484;28;20041;-73
2023/04/21 05:42:48;;;;;;;25.30;14.68;;;;;;;;;;5028481;28;20090;-74
2023/04/21 05:45:14;;;;;;;24.83;14.82;;;;;;;;;;5027737;28;20158;-75
2023/04/21 05:47:40;;;;;;;27.83;15.45;;;;;;;;;;5028885;28;20049;-74
2023/04/21 05:50:07;;;;;;;25.42;14.93;;;;;;;;;;5026199;28;20608;-73
2023/04/21 05:52:36;;;;;;;22.33;14.63;;;;;;;;;;5029706;28;20056;-73
2023/04/21 05:55:03;;;;;;;24.63;13.55;;;;;;;;;;5028777;28;20079;-74
2023/04/21 05:57:29;;;;;;;22.17;14.63;;;;;;;;;;5028431;28;20041;-74
2023/04/21 05:59:55;;;;;;;25.88;15.18;;;;;;;;;;5043210;28;20505;-74
2023/04/21 06:02:22;;;;;;;27.60;14.75;;;;;;;;;;5027894;28;20041;-73
2023/04/21 06:04:48;;;;;;;24.38;13.98;;;;;;;;;;5011307;28;20124;-74
2023/04/21 06:07:14;;;;;;;25.10;14.02;;;;;;;;;;5027472;28;20548;-74
2023/04/21 06:09:40;;;;;;;24.08;14.23;;;;;;;;;;5029258;28;20052;-74
2023/04/21 06:12:06;;;;;;;24.52;14.30;;;;;;;;;;5027910;28;20497;-74
2023/04/21 06:14:32;;;;;;;22.17;14.40;;;;;;;;;;5028579;28;20107;-75
2023/04/21 06:16:58;;;;;;;22.63;14.40;;;;;;;;;;5028196;28;20041;-74
2023/04/21 06:19:24;;;;;;;24.60;14.27;;;;;;;;;;5026741;28;20045;-74
2023/04/21 06:21:51;;;;;;;24.23;13.95;;;;;;;;;;5028201;28;20382;-74
2023/04/21 06:24:23;;;;;;;20.50;13.63;;;;;;;;;;5026573;28;20056;-75
2023/04/21 06:26:50;;;;;;;26.90;14.35;;;;;;;;;;5028210;28;20164;-75
2023/04/21 06:29:16;;;;;;;25.65;13.38;;;;;;;;;;5026300;28;20496;-75
2023/04/21 06:31:42;;;;;;;21.80;13.15;;;;;;;;;;5027654;28;20055;-76
2023/04/21 06:34:08;;;;;;;27.85;13.90;;;;;;;;;;5044375;28;20817;-75
2023/04/21 06:36:33;;;;;;;21.90;13.30;;;;;;;;;;5028169;28;20059;-75
2023/04/21 06:38:59;;;;;;;22.25;13.40;;;;;;;;;;5027929;28;20106;-75
2023/04/21 06:41:26;;;;;;;24.42;12.93;;;;;;;;;;5026491;28;20049;-74
2023/04/21 06:43:52;;;;;;;24.13;12.52;;;;;;;;;;5027500;28;20056;-75
2023/04/21 06:46:18;;;;;;;22.67;13.38;;;;;;;;;;5026286;28;20187;-74
2023/04/21 06:48:44;;;;;;;21.77;13.23;;;;;;;;;;5027778;28;20152;-74
2023/04/21 06:51:10;;;;;;;20.88;13.02;;;;;;;;;;5025030;28;20154;-74
2023/04/21 06:53:37;;;;;;;21.25;12.73;;;;;;;;;;5044921;28;20106;-73
2023/04/21 06:56:03;;;;;;;21.77;13.05;;;;;;;;;;5027344;28;20041;-75
2023/04/21 06:58:29;;;;;;;21.00;12.13;;;;;;;;;;5026716;28;20037;-73
2023/04/21 07:00:55;;;;;;;18.95;12.30;;;;;;;;;;5027674;28;20055;-75
2023/04/21 07:03:21;;;;;;;22.30;12.77;;;;;;;;;;5044015;28;20048;-74
2023/04/21 07:05:47;;;;;;;17.48;11.70;;;;;;;;;;5027186;28;20420;-74
2023/04/21 07:08:13;;;;;;;20.48;11.57;;;;;;;;;;5026438;28;20102;-74
2023/04/21 07:10:39;;;;;;;18.23;11.55;;;;;;;;;;5045181;28;20060;-73
2023/04/21 07:13:06;;;;;;;23.08;12.27;;;;;;;;;;5044477;28;20044;-73
2023/04/21 07:15:32;;;;;;;26.50;12.55;;;;;;;;;;5044864;28;20098;-74
2023/04/21 07:17:58;;;;;;;20.52;11.23;;;;;;;;;;5044188;28;20056;-74
2023/04/21 07:20:24;;;;;;;24.40;11.90;;;;;;;;;;5025489;28;20464;-75
2023/04/21 07:22:50;;;;;;;23.70;12.45;;;;;;;;;;5044932;28;20053;-74
2023/04/21 07:25:16;;;;;;;21.73;11.88;;;;;;;;;;5026067;28;20056;-74
2023/04/21 07:27:42;;;;;;;24.75;11.75;;;;;;;;;;5026997;28;20313;-74
2023/04/21 07:30:08;;;;;;;18.02;10.55;;;;;;;;;;5025422;28;20598;-75
2023/04/21 07:32:36;;;;;;;25.27;11.80;;;;;;;;;;5044778;28;20036;-74
2023/04/21 07:35:02;;;;;;;19.95;11.20;;;;;;;;;;5026248;28;20056;-75
2023/04/21 07:37:28;;;;;;;25.73;11.68;;;;;;;;;;5026638;28;20116;-73
2023/04/21 07:39:54;;;;;;;17.45;11.15;;;;;;;;;;5010743;28;20504;-76
2023/04/21 07:42:20;;;;;;;31.30;11.40;;;;;;;;;;5025963;28;20041;-72
2023/04/21 07:44:47;;;;;;;20.02;10.68;;;;;;;;;;5027193;28;20056;-74
2023/04/21 07:47:13;;;;;;;23.50;11.25;;;;;;;;;;5043752;28;20088;-73
2023/04/21 07:49:39;;;;;;;18.77;11.23;;;;;;;;;;5009818;28;20083;-74
2023/04/21 07:52:05;;;;;;;19.50;10.10;;;;;;;;;;5043599;28;20072;-74
2023/04/21 07:54:31;;;;;;;23.08;11.30;;;;;;;;;;5010197;28;20400;-75
2023/04/21 07:56:57;;;;;;;21.42;10.35;;;;;;;;;;5045110;28;20041;-75
2023/04/21 07:59:23;;;;;;;22.17;10.90;;;;;;;;;;5025198;28;20135;-74
2023/04/21 08:01:50;;;;;;;20.10;11.02;;;;;;;;;;5025776;28;20132;-75
2023/04/21 08:04:16;;;;;;;20.17;10.80;;;;;;;;;;5024785;28;20045;-76
2023/04/21 08:06:42;;;;;;;20.42;10.82;;;;;;;;;;5029438;28;20559;-75
2023/04/21 08:09:08;;;;;;;25.00;11.25;;;;;;;;;;5048323;28;20046;-74
2023/04/21 08:11:34;;;;;;;17.50;10.68;;;;;;;;;;5030077;28;20080;-73
2023/04/21 08:14:01;;;;;;;19.95;10.40;;;;;;;;;;5046470;28;20040;-74
2023/04/21 08:16:27;;;;;;;21.23;10.93;;;;;;;;;;5043639;28;20053;-73
2023/04/21 08:18:53;;;;;;;23.83;10.57;;;;;;;;;;5047781;28;20037;-75
2023/04/21 08:21:19;;;;;;;19.48;10.02;;;;;;;;;;5028570;28;20083;-74
2023/04/21 08:23:45;;;;;;;21.67;9.75;;;;;;;;;;5048515;28;20053;-75
2023/04/21 08:26:11;;;;;;;23.02;10.18;;;;;;;;;;5046897;28;20056;-75
2023/04/21 08:28:37;;;;;;;17.52;10.13;;;;;;;;;;5029920;28;20110;-74
2023/04/21 08:31:04;;;;;;;19.17;10.93;;;;;;;;;;5028427;28;20048;-74
2023/04/21 08:33:30;;;;;;;20.58;10.25;;;;;;;;;;5030686;28;20413;-74
2023/04/21 08:35:56;;;;;;;18.75;9.77;;;;;;;;;;5029377;28;20047;-74
2023/04/21 08:38:21;;;;;;;17.83;10.68;;;;;;;;;;5047816;28;20126;-75
2023/04/21 08:40:48;;;;;;;14.88;9.82;;;;;;;;;;5030624;28;20049;-75
2023/04/21 08:43:14;;;;;;;15.75;10.35;;;;;;;;;;5029560;28;20119;-75
2023/04/21 08:45:40;;;;;;;20.85;10.10;;;;;;;;;;5030009;28;20152;-74
2023/04/21 08:48:08;;;;;;;22.77;10.00;;;;;;;;;;5028868;28;20052;-74
2023/04/21 08:50:35;;;;;;;22.60;10.63;;;;;;;;;;5028309;28;20052;-75
2023/04/21 08:53:01;;;;;;;18.52;10.15;;;;;;;;;;5030275;28;20044;-74
2023/04/21 08:55:29;;;;;;;18.15;10.57;;;;;;;;;;5029323;28;20502;-74
2023/04/21 08:57:55;;;;;;;20.23;10.27;;;;;;;;;;5047568;28;20467;-74
2023/04/21 09:00:21;;;;;;;22.65;9.95;;;;;;;;;;5045193;28;20431;-75
2023/04/21 09:02:54;;;;;;;22.23;11.00;;;;;;;;;;5030211;28;20041;-75
2023/04/21 09:05:23;;;;;;;21.35;10.07;;;;;;;;;;5011331;28;20421;-75
2023/04/21 09:07:50;;;;;;;18.58;10.52;;;;;;;;;;5030044;28;20528;-74
2023/04/21 09:10:22;;;;;;;21.77;9.98;;;;;;;;;;5030002;28;20408;-75
2023/04/21 09:12:51;;;;;;;18.45;9.80;;;;;;;;;;5029076;28;20053;-76
2023/04/21 09:15:19;;;;;;;22.60;9.55;;;;;;;;;;5029509;28;20052;-76
2023/04/21 09:17:46;;;;;;;23.90;9.95;;;;;;;;;;5028600;28;20072;-75
2023/04/21 09:20:19;;;;;;;21.15;10.23;;;;;;;;;;5028982;28;20037;-75
2023/04/21 09:22:45;;;;;;;22.40;10.35;;;;;;;;;;5028324;28;20064;-75
2023/04/21 09:25:16;;;;;;;14.13;9.18;;;;;;;;;;5029361;28;20053;-75
2023/04/21 09:27:42;;;;;;;17.95;10.15;;;;;;;;;;5028699;28;20053;-75
2023/04/21 09:30:08;;;;;;;23.85;10.23;;;;;;;;;;5044771;28;20052;-75
2023/04/21 09:32:38;;;;;;;17.98;9.68;;;;;;;;;;5045790;28;20037;-76
2023/04/21 09:35:05;;;;;;;16.30;9.95;;;;;;;;;;5043608;28;20048;-76
2023/04/21 09:37:33;;;;;;;18.92;10.02;;;;;;;;;;5028938;28;20421;-76
2023/04/21 09:39:59;;;;;;;25.80;10.63;;;;;;;;;;5028061;28;20064;-76
2023/04/21 09:42:29;;;;;;;15.50;9.43;;;;;;;;;;5028388;28;20140;-75
2023/04/21 09:44:55;;;;;;;24.48;10.63;;;;;;;;;;5028574;28;20832;-75
2023/04/21 09:47:21;;;;;;;22.98;10.00;;;;;;;;;;5028606;28;20051;-75
2023/04/21 09:49:50;;;;;;;21.67;9.27;;;;;;;;;;5028694;28;20522;-75
2023/04/21 09:52:18;;;;;;;22.48;9.50;;;;;;;;;;5027781;28;20049;-74
2023/04/21 09:54:48;;;;;;;18.15;9.23;;;;;;;;;;5029334;28;20053;-75
2023/04/21 09:57:20;;;;;;;19.38;9.93;;;;;;;;;;5028188;28;20045;-75
2023/04/21 09:59:46;;;;;;;19.63;9.40;;;;;;;;;;5026293;28;20056;-75
2023/04/21 10:02:12;;;;;;;15.73;9.40;;;;;;;;;;5028818;28;20105;-74
2023/04/21 10:04:40;;;;;;;18.92;9.20;;;;;;;;;;5044722;28;20059;-73
2023/04/21 10:07:06;;;;;;;21.27;9.25;;;;;;;;;;5028311;28;20066;-74
2023/04/21 10:09:47;;;;;;;27.02;10.30;;;;;;;;;;5028105;28;20053;-75
2023/04/21 10:12:13;;;;;;;19.48;9.55;;;;;;;;;;5046594;28;20048;-75
2023/04/21 10:14:39;;;;;;;17.98;8.82;;;;;;;;;;5045349;28;20033;-76
2023/04/21 10:17:06;;;;;;;17.98;9.00;;;;;;;;;;5028129;28;20053;-75
2023/04/21 10:19:35;;;;;;;15.93;9.18;;;;;;;;;;5026449;28;20033;-75
2023/04/21 10:22:01;;;;;;;;;;;;;;;;;;5027874;28;20044;-75
2023/04/21 10:24:30;;;;;;;19.33;9.30;;;;;;;;;;5011951;28;20508;-75
2023/04/21 10:27:00;;;;;;;19.38;8.68;;;;;;;;;;5027403;28;20053;-75
2023/04/21 10:29:31;;;;;;;16.92;9.50;;;;;;;;;;5026928;28;20053;-75
2023/04/21 10:31:57;;;;;;;18.17;8.88;;;;;;;;;;5026954;28;20083;-74
2023/04/21 10:34:26;;;;;;;22.02;9.10;;;;;;;;;;5044813;28;20069;-76
2023/04/21 10:36:55;;;;;;;25.52;10.20;;;;;;;;;;5027810;28;20053;-76
2023/04/21 10:39:28;;;;;;;19.73;8.60;;;;;;;;;;5027515;28;20484;-76
2023/04/21 10:41:57;;;;;;;19.52;9.25;;;;;;;;;;5028754;28;20377;-75
2023/04/21 10:44:23;;;;;;;16.08;8.73;;;;;;;;;;5026642;28;20055;-76
2023/04/21 10:46:50;;;;;;;15.15;8.35;;;;;;;;;;5046258;28;20044;-76
2023/04/21 10:49:16;;;;;;;17.10;9.70;;;;;;;;;;5030858;28;20076;-76
2023/04/21 10:51:58;;;;;;;19.15;8.60;;;;;;;;;;5027805;28;20088;-76
2023/04/21 10:54:24;;;;;;;13.65;8.50;;;;;;;;;;5011377;28;20067;-75
2023/04/21 10:56:54;;;;;;;16.70;8.55;;;;;;;;;;5044464;28;20041;-76
2023/04/21 10:59:20;;;;;;;22.77;8.23;;;;;;;;;;5027046;28;20081;-75
2023/04/21 11:01:46;;;;;;;19.48;7.88;;;;;;;;;;5010139;28;20045;-75
2023/04/21 11:04:13;;;;;;;17.38;7.22;;;;;;;;;;5045243;28;20510;-75
2023/04/21 11:06:40;;;;;;;19.02;6.95;;;;;;;;;;5026691;28;20048;-76
2023/04/21 11:09:06;;;;;;;17.75;7.13;;;;;;;;;;5027065;28;20408;-75
2023/04/21 11:11:32;;;;;;;18.98;6.85;;;;;;;;;;5026452;28;20049;-75
2023/04/21 11:14:01;;;;;;;16.25;6.53;;;;;;;;;;5026741;28;20037;-76
2023/04/21 11:16:27;;;;;;;22.83;7.00;;;;;;;;;;5028042;28;20187;-75
2023/04/21 11:18:55;;;;;;;13.23;6.45;;;;;;;;;;5025796;28;20049;-76
2023/04/21 11:21:23;;;;;;;11.07;5.68;;;;;;;;;;5011476;28;20392;-76
2023/04/21 11:23:50;;;;;;;15.95;5.55;;;;;;;;;;5044299;28;20059;-76
2023/04/21 11:26:16;;;;;;;16.48;5.32;;;;;;;;;;5027425;28;20067;-75
2023/04/21 11:28:42;;;;;;;34.53;6.40;;;;;;;;;;5027224;28;20041;-76
2023/04/21 11:31:08;;;;;;;15.40;5.18;;;;;;;;;;5026167;28;20092;-75
2023/04/21 11:33:38;;;;;;;32.45;5.72;;;;;;;;;;5027420;28;20804;-76
2023/04/21 11:36:07;;;;;;;24.17;5.90;;;;;;;;;;5043216;28;20037;-76
2023/04/21 11:38:37;;;;;;;10.20;5.15;;;;;;;;;;5045218;28;20463;-76
2023/04/21 11:41:03;;;;;;;19.02;5.60;;;;;;;;;;5015206;28;20500;-76
2023/04/21 11:43:29;;;;;;;8.50;4.57;;;;;;;;;;5031321;28;20037;-76
2023/04/21 11:46:10;;;;;;;13.40;4.72;;;;;;;;;;5048753;28;20075;-76
2023/04/21 11:48:36;;;;;;;27.65;5.28;;;;;;;;;;5048276;28;20052;-76
2023/04/21 11:51:02;;;;;;;13.30;4.72;;;;;;;;;;5030038;28;20045;-76
2023/04/21 11:53:28;;;;;;;36.28;6.45;;;;;;;;;;5029745;28;20102;-75
2023/04/21 11:55:55;;;;;;;48.60;5.50;;;;;;;;;;5014303;28;20049;-76
2023/04/21 11:58:21;;;;;;;15.82;5.05;;;;;;;;;;5027760;28;20055;-75
2023/04/21 12:00:49;;;;;;;22.42;5.68;;;;;;;;;;5030501;28;20527;-75
2023/04/21 12:03:15;;;;;;;21.35;5.50;;;;;;;;;;5029964;28;20053;-75
2023/04/21 12:05:41;;;;;;;15.13;4.82;;;;;;;;;;5028840;28;20082;-75
2023/04/21 12:08:13;;;;;;;12.40;4.57;;;;;;;;;;5048461;28;20041;-75
2023/04/21 12:10:43;;;;;;;10.05;4.85;;;;;;;;;;5027941;28;20049;-75
2023/04/21 12:13:09;;;;;;;23.63;5.75;;;;;;;;;;5030579;28;20055;-75
2023/04/21 12:15:35;;;;;;;18.23;5.50;;;;;;;;;;5012712;28;20040;-74
2023/04/21 12:18:13;;;;;;;26.40;5.57;;;;;;;;;;5048894;28;20045;-75
2023/04/21 12:20:48;;;;;;;14.20;5.25;;;;;;;;;;5009481;28;20451;-76
2023/04/21 12:23:16;;;;;;;19.00;5.40;;;;;;;;;;5016551;28;20064;-76
2023/04/21 12:25:44;;;;;;;17.70;5.22;;;;;;;;;;5047316;28;20040;-76
2023/04/21 12:28:13;;;;;;;17.35;5.28;;;;;;;;;;5046021;28;20428;-76
2023/04/21 12:30:39;;;;;;;9.80;4.70;;;;;;;;;;5048450;28;20045;-76
2023/04/21 12:33:08;;;;;;;17.42;4.80;;;;;;;;;;5047349;28;20072;-76
2023/04/21 12:35:34;;;;;;;11.85;4.72;;;;;;;;;;5046510;28;20076;-76
2023/04/21 12:38:00;;;;;;;22.42;5.53;;;;;;;;;;5047245;28;20041;-76
2023/04/21 12:40:26;;;;;;;7.95;4.78;;;;;;;;;;5048048;28;20045;-76
2023/04/21 12:42:52;;;;;;;18.10;5.00;;;;;;;;;;5028543;28;20123;-76
2023/04/21 12:45:18;;;;;;;20.15;5.55;;;;;;;;;;5029560;28;20413;-75
2023/04/21 12:47:44;;;;;;;13.43;5.22;;;;;;;;;;5030221;28;20052;-75
2023/04/21 12:50:11;;;;;;;17.77;4.55;;;;;;;;;;5044598;28;20045;-76
2023/04/21 12:52:37;;;;;;;10.75;4.75;;;;;;;;;;5029912;28;20037;-75
2023/04/21 12:55:03;;;;;;;10.07;3.97;;;;;;;;;;5028935;28;20046;-76
2023/04/21 12:57:30;;;;;;;18.70;3.78;;;;;;;;;;5029736;28;20052;-77
2023/04/21 12:59:56;;;;;;;70.95;5.40;;;;;;;;;;5045129;28;20047;-76
2023/04/21 13:02:22;;;;;;;15.90;4.03;;;;;;;;;;5029933;28;20659;-75
2023/04/21 13:04:48;;;;;;;12.02;3.85;;;;;;;;;;5027604;28;20477;-75
2023/04/21 13:07:15;;;;;;;33.38;3.95;;;;;;;;;;5029291;28;20056;-76
2023/04/21 13:09:41;;;;;;;26.55;4.00;;;;;;;;;;5047708;28;20428;-76
2023/04/21 13:12:07;;;;;;;17.67;3.90;;;;;;;;;;5029351;28;20041;-75
2023/04/21 13:14:33;;;;;;;12.18;3.50;;;;;;;;;;5029699;28;20071;-76
2023/04/21 13:16:59;;;;;;;15.40;3.97;;;;;;;;;;5027793;28;20130;-76
2023/04/21 13:19:25;;;;;;;15.43;3.22;;;;;;;;;;5046792;28;20045;-75
2023/04/21 13:21:51;;;;;;;30.40;4.07;;;;;;;;;;5046829;28;20051;-74
2023/04/21 13:24:17;;;;;;;14.50;3.50;;;;;;;;;;5025857;28;20049;-76
2023/04/21 13:26:43;;;;;;;15.65;3.60;;;;;;;;;;5025836;28;20065;-76
2023/04/21 13:29:10;;;;;;;16.27;3.85;;;;;;;;;;5041367;28;20093;-75
2023/04/21 13:31:36;;;;;;;30.75;4.68;;;;;;;;;;5026513;28;20088;-75
2023/04/21 13:34:02;;;;;;;12.38;3.67;;;;;;;;;;5040400;28;20033;-75
2023/04/21 13:36:28;;;;;;;17.23;3.42;;;;;;;;;;5027361;28;20453;-75
2023/04/21 13:38:55;;;;;;;19.90;4.13;;;;;;;;;;5041274;28;20796;-75
2023/04/21 13:41:21;;;;;;;12.63;3.22;;;;;;;;;;5043200;28;20083;-75
2023/04/21 13:43:47;;;;;;;11.35;3.33;;;;;;;;;;5026570;28;20037;-75
2023/04/21 13:46:13;;;;;;;15.75;3.50;;;;;;;;;;5025599;28;20049;-76
2023/04/21 13:48:39;;;;;;;20.60;3.60;;;;;;;;;;5042075;28;20501;-76
2023/04/21 13:51:05;;;;;;;31.88;4.05;;;;;;;;;;5039655;28;20038;-76
2023/04/21 13:53:31;;;;;;;23.35;4.15;;;;;;;;;;5042049;28;20060;-76
2023/04/21 13:55:58;;;;;;;22.92;4.07;;;;;;;;;;5026098;28;20038;-74
2023/04/21 13:58:24;;;;;;;15.18;3.83;;;;;;;;;;5040773;28;20068;-75
2023/04/21 14:00:50;;;;;;;39.15;4.25;;;;;;;;;;5039927;28;20099;-74
2023/04/21 14:03:16;;;;;;;17.10;4.10;;;;;;;;;;5040398;28;20045;-75
2023/04/21 14:05:42;;;;;;;18.83;3.72;;;;;;;;;;5037397;28;20521;-75
2023/04/21 14:08:08;;;;;;;59.72;5.15;;;;;;;;;;5020001;28;20041;-75
2023/04/21 14:10:34;;;;;;;26.92;3.40;;;;;;;;;;5026927;28;20140;-75
2023/04/21 14:13:00;;;;;;;23.20;3.83;;;;;;;;;;5040414;28;20037;-75
2023/04/21 14:15:26;;;;;;;16.13;3.40;;;;;;;;;;5025550;28;20413;-73
2023/04/21 14:17:52;;;;;;;20.05;3.38;;;;;;;;;;5025546;28;20048;-74